Time;durP1;ratioP1;P1;durP2;ratioP2;P2;SDS_P1;SDS_P2;PMS_P1;PMS_P2;Temp;Humidity;BMP_temperature;BMP_pressure;BME280_temperature;BME280_humidity;BME280_pressure;Samples;Min_cycle;Max_cycle;Signal;HPM_P1;HPM_P2
2021/12/12 00:01:05;;;;;;;0.50;0.50;;;16.20;74.90;;;;;;4944535;28;96216;-42
2021/12/12 00:03:42;;;;;;;1.20;0.52;;;16.30;74.90;;;;;;4948927;28;95542;-42
2021/12/12 00:06:35;;;;;;;0.60;0.60;;;16.30;74.90;;;;;;4946848;28;95232;-43
2021/12/12 00:09:12;;;;;;;2.05;0.40;;;16.40;74.90;;;;;;4943540;28;95632;-44
2021/12/12 00:11:44;;;;;;;1.05;0.50;;;16.40;74.90;;;;;;4947462;28;96109;-46
2021/12/12 00:14:20;;;;;;;1.02;0.75;;;16.40;74.80;;;;;;4945676;28;95860;-42
2021/12/12 00:16:52;;;;;;;0.93;0.60;;;16.50;74.80;;;;;;4942816;28;95764;-42
2021/12/12 00:19:26;;;;;;;1.15;0.40;;;16.50;74.80;;;;;;4948657;28;95297;-45
2021/12/12 00:22:00;;;;;;;0.50;0.50;;;16.60;74.80;;;;;;4947877;28;96297;-44
2021/12/12 00:24:31;;;;;;;0.35;0.35;;;16.60;74.70;;;;;;4946167;28;95867;-43
2021/12/12 00:27:02;;;;;;;0.43;0.35;;;16.60;74.80;;;;;;4949133;28;95553;-44
2021/12/12 00:29:34;;;;;;;;;;;16.60;74.70;;;;;;4948534;28;97038;-44
2021/12/12 00:32:10;;;;;;;;;;;16.70;74.80;;;;;;4942319;28;96638;-42
2021/12/12 00:34:48;;;;;;;0.30;0.30;;;16.70;74.80;;;;;;4948528;28;96539;-42
2021/12/12 00:37:19;;;;;;;0.80;0.80;;;16.70;74.70;;;;;;4934572;28;98349;-42
2021/12/12 00:39:54;;;;;;;0.40;0.40;;;16.80;74.80;;;;;;4948962;28;95428;-43
2021/12/12 00:42:28;;;;;;;0.98;0.40;;;16.80;74.70;;;;;;4948694;28;96081;-42
2021/12/12 00:45:03;;;;;;;0.68;0.40;;;16.90;74.80;;;;;;4948734;28;95743;-44
2021/12/12 00:47:33;;;;;;;0.43;0.38;;;16.90;74.70;;;;;;4947994;28;95931;-45
2021/12/12 00:50:21;;;;;;;0.30;0.30;;;16.90;74.60;;;;;;4948427;28;95237;-43
2021/12/12 00:52:52;;;;;;;0.77;0.50;;;17.00;74.80;;;;;;4948619;28;96115;-42
2021/12/12 00:55:22;;;;;;;;;;;17.00;74.70;;;;;;4992721;22;96325;-44
2021/12/12 00:57:55;;;;;;;0.30;0.30;;;17.10;74.80;;;;;;4949301;28;95341;-42
2021/12/12 01:00:30;;;;;;;0.40;0.38;;;17.10;74.70;;;;;;4942577;28;96006;-42
2021/12/12 01:03:01;;;;;;;0.30;0.30;;;17.10;74.60;;;;;;4950168;28;95902;-40
2021/12/12 01:05:32;;;;;;;0.60;0.60;;;17.20;74.60;;;;;;4946514;28;95478;-40
2021/12/12 01:08:07;;;;;;;0.38;0.30;;;17.20;74.60;;;;;;4943997;28;95383;-44
2021/12/12 01:10:47;;;;;;;0.50;0.15;;;17.30;74.60;;;;;;4952310;28;96672;-40
2021/12/12 01:13:20;;;;;;;0.20;0.20;;;17.30;74.70;;;;;;4950765;28;95832;-41
2021/12/12 01:16:07;;;;;;;0.57;0.50;;;17.30;74.60;;;;;;4944640;28;95931;-44
2021/12/12 01:18:44;;;;;;;0.43;0.40;;;17.40;74.60;;;;;;4950837;28;95206;-41
2021/12/12 01:21:21;;;;;;;1.48;0.40;;;17.40;74.60;;;;;;4951780;28;95309;-43
2021/12/12 01:24:03;;;;;;;0.20;0.20;;;17.50;74.50;;;;;;4946751;28;95914;-42
2021/12/12 01:26:34;;;;;;;0.80;0.40;;;17.50;74.60;;;;;;4951273;28;95213;-41
2021/12/12 01:29:06;;;;;;;0.22;0.22;;;17.50;74.50;;;;;;4950967;28;96157;-40
2021/12/12 01:31:46;;;;;;;0.32;0.30;;;17.60;74.50;;;;;;4944494;28;96061;-44
2021/12/12 01:34:26;;;;;;;0.50;0.50;;;17.60;74.50;;;;;;4949676;28;95930;-43
2021/12/12 01:39:37;;;;;;;0.50;0.50;;;17.80;74.50;;;;;;4951402;28;97124;-42
2021/12/12 01:42:10;;;;;;;1.20;0.45;;;17.80;74.50;;;;;;4951439;28;96021;-43
2021/12/12 01:44:49;;;;;;;0.45;0.32;;;17.80;74.40;;;;;;4950393;28;95961;-44
2021/12/12 01:47:27;;;;;;;0.60;0.60;;;17.90;74.40;;;;;;4944607;28;95480;-42
2021/12/12 01:50:02;;;;;;;0.40;0.40;;;18.00;74.40;;;;;;4950364;28;95364;-43
2021/12/12 01:52:32;;;;;;;0.25;0.25;;;18.00;74.30;;;;;;4952352;28;95591;-43
2021/12/12 01:55:21;;;;;;;0.45;0.43;;;18.00;74.40;;;;;;4951256;28;96465;-42
2021/12/12 01:57:57;;;;;;;0.30;0.30;;;18.10;74.30;;;;;;4951478;28;95372;-43
2021/12/12 02:00:42;;;;;;;0.60;0.60;;;18.10;74.30;;;;;;4947033;28;95863;-42
2021/12/12 02:03:18;;;;;;;0.30;0.30;;;18.20;74.20;;;;;;4949939;28;95857;-43
2021/12/12 02:05:49;;;;;;;0.20;0.20;;;18.20;74.20;;;;;;4949465;28;96102;-41
2021/12/12 02:08:23;;;;;;;1.00;0.63;;;18.20;74.20;;;;;;4950911;28;97504;-42
2021/12/12 02:11:00;;;;;;;0.22;0.20;;;18.30;74.20;;;;;;4950732;28;95742;-41
2021/12/12 02:13:36;;;;;;;0.82;0.60;;;18.40;74.10;;;;;;4950763;28;96046;-45
2021/12/12 02:16:08;;;;;;;0.80;0.50;;;18.40;74.10;;;;;;4943662;28;95878;-42
2021/12/12 02:18:46;;;;;;;0.63;0.30;;;18.40;74.00;;;;;;4950872;28;95767;-43
2021/12/12 02:21:30;;;;;;;0.20;0.20;;;18.50;74.20;;;;;;4948394;28;95495;-46
2021/12/12 02:35:44;;;;;;;0.40;0.40;;;18.70;73.80;;;;;;4938634;28;97724;-44
2021/12/12 02:38:19;;;;;;;0.35;0.30;;;18.80;73.80;;;;;;4939103;28;96837;-42
2021/12/12 02:40:59;;;;;;;0.35;0.30;;;18.90;73.80;;;;;;4949181;28;96091;-41
2021/12/12 02:43:34;;;;;;;0.20;0.20;;;18.90;73.70;;;;;;4956661;28;95695;-46
2021/12/12 02:46:07;;;;;;;0.38;0.30;;;19.00;73.70;;;;;;4944234;28;95373;-43
2021/12/12 02:48:41;;;;;;;0.20;0.20;;;19.00;73.70;;;;;;4950961;28;96490;-44
2021/12/12 02:51:15;;;;;;;0.93;0.40;;;19.00;73.60;;;;;;4949071;28;98291;-42
2021/12/12 02:53:52;;;;;;;0.30;0.30;;;19.10;73.70;;;;;;4950526;28;95869;-43
2021/12/12 02:56:47;;;;;;;0.85;0.38;;;19.10;73.60;;;;;;4949884;28;95335;-44
2021/12/12 02:59:22;;;;;;;0.22;0.22;;;19.20;73.60;;;;;;4943635;28;96101;-43
2021/12/12 03:02:16;;;;;;;0.30;0.30;;;19.20;73.50;;;;;;4943917;28;95568;-46
2021/12/12 03:04:48;;;;;;;0.10;0.10;;;19.30;73.40;;;;;;4957978;28;95756;-46
2021/12/12 03:07:19;;;;;;;;;;;19.40;73.40;;;;;;4950146;28;96278;-45
2021/12/12 03:09:57;;;;;;;0.30;0.30;;;19.40;73.40;;;;;;4950777;28;95764;-44
2021/12/12 03:12:33;;;;;;;0.40;0.40;;;19.40;73.40;;;;;;4947677;28;96032;-44
2021/12/12 03:15:38;;;;;;;0.47;0.43;;;19.50;73.40;;;;;;4944758;28;95726;-44
2021/12/12 03:18:13;;;;;;;0.68;0.30;;;19.50;73.20;;;;;;4946222;28;95434;-43
2021/12/12 03:20:50;;;;;;;0.32;0.32;;;19.60;73.30;;;;;;4950158;28;96065;-42
2021/12/12 03:23:28;;;;;;;0.30;0.30;;;19.60;73.20;;;;;;4950233;28;96001;-44
2021/12/12 03:26:05;;;;;;;0.28;0.28;;;19.70;73.20;;;;;;4949614;28;95730;-40
2021/12/12 03:28:39;;;;;;;0.45;0.45;;;19.70;73.10;;;;;;4948182;28;95901;-45
2021/12/12 03:31:21;;;;;;;0.35;0.32;;;19.80;73.10;;;;;;4943937;28;96188;-42
2021/12/12 03:33:52;;;;;;;0.30;0.30;;;19.80;73.10;;;;;;4949297;28;95801;-47
2021/12/12 03:36:23;;;;;;;1.17;0.30;;;19.90;73.00;;;;;;4933736;28;95950;-43
2021/12/12 03:39:00;;;;;;;0.20;0.20;;;19.90;73.00;;;;;;4943688;28;95881;-44
2021/12/12 03:41:33;;;;;;;0.60;0.40;;;20.00;72.90;;;;;;4946853;28;96002;-46
2021/12/12 03:44:09;;;;;;;0.40;0.40;;;20.00;72.90;;;;;;4948343;28;95817;-44
2021/12/12 03:46:43;;;;;;;0.40;0.40;;;20.10;72.80;;;;;;4943389;28;95917;-45
2021/12/12 03:49:14;;;;;;;0.28;0.28;;;20.10;72.80;;;;;;4950770;28;95778;-42
2021/12/12 03:51:46;;;;;;;0.77;0.20;;;20.10;72.70;;;;;;4950707;28;96602;-45
2021/12/12 03:54:18;;;;;;;0.40;0.40;;;20.20;72.50;;;;;;4948462;28;95775;-40
2021/12/12 03:56:50;;;;;;;0.30;0.30;;;20.30;72.70;;;;;;4950823;28;95746;-42
2021/12/12 03:59:21;;;;;;;0.38;0.38;;;20.30;72.50;;;;;;4949477;28;96168;-44
2021/12/12 04:01:54;;;;;;;0.32;0.32;;;20.30;72.50;;;;;;4942642;28;96479;-41
2021/12/12 04:04:33;;;;;;;0.43;0.43;;;20.40;72.50;;;;;;4948817;28;95680;-43
2021/12/12 04:07:09;;;;;;;0.40;0.40;;;20.40;72.30;;;;;;4949317;28;95337;-42
2021/12/12 04:09:40;;;;;;;0.40;0.40;;;20.40;72.50;;;;;;4952396;28;95731;-42
2021/12/12 04:12:13;;;;;;;0.65;0.60;;;20.50;72.30;;;;;;4949197;28;96645;-42
2021/12/12 04:14:47;;;;;;;0.43;0.43;;;20.50;72.30;;;;;;4945337;28;95940;-45
2021/12/12 04:17:23;;;;;;;1.40;0.47;;;20.60;72.20;;;;;;4943936;28;95640;-46
2021/12/12 04:19:57;;;;;;;0.40;0.40;;;20.60;72.10;;;;;;4946525;28;95178;-44
2021/12/12 04:22:36;;;;;;;0.50;0.45;;;20.70;72.10;;;;;;4947409;28;95861;-44
2021/12/12 04:25:07;;;;;;;0.50;0.50;;;20.70;72.00;;;;;;4945392;28;95986;-43
2021/12/12 04:27:38;;;;;;;;;;;20.70;72.00;;;;;;4949719;28;95440;-43
2021/12/12 04:30:12;;;;;;;0.25;0.25;;;20.70;71.90;;;;;;4950078;28;95719;-42
2021/12/12 04:32:43;;;;;;;0.60;0.60;;;20.80;71.90;;;;;;4947866;28;96503;-40
2021/12/12 04:35:21;;;;;;;0.98;0.70;;;20.80;71.90;;;;;;4939543;28;95666;-45
2021/12/12 04:37:52;;;;;;;0.40;0.40;;;20.90;71.90;;;;;;4934558;28;99290;-44
2021/12/12 04:40:24;;;;;;;0.30;0.30;;;20.90;71.80;;;;;;4948796;28;95356;-42
2021/12/12 04:42:56;;;;;;;0.32;0.32;;;20.90;71.70;;;;;;4948911;28;96634;-44
2021/12/12 04:45:40;;;;;;;0.63;0.63;;;21.00;71.70;;;;;;4947239;28;95821;-43
2021/12/12 04:51:29;;;;;;;1.98;0.47;;;21.10;71.60;;;;;;4950668;28;95721;-41
2021/12/12 04:54:16;;;;;;;1.00;0.50;;;21.10;71.50;;;;;;4950463;28;96570;-44
2021/12/12 04:57:02;;;;;;;0.50;0.50;;;21.10;71.50;;;;;;4953030;28;96104;-43
2021/12/12 04:59:57;;;;;;;0.50;0.38;;;21.20;71.50;;;;;;4949722;28;95860;-42
2021/12/12 05:02:42;;;;;;;2.67;0.60;;;21.20;71.50;;;;;;4953593;28;95606;-46
2021/12/12 05:05:19;;;;;;;0.50;0.50;;;21.30;71.50;;;;;;4948451;28;96056;-43
2021/12/12 05:08:04;;;;;;;1.52;0.60;;;21.30;71.40;;;;;;4950055;28;95853;-40
2021/12/12 05:10:57;;;;;;;0.50;0.43;;;21.30;71.30;;;;;;4950284;28;95885;-41
2021/12/12 05:13:37;;;;;;;1.27;0.55;;;21.30;71.30;;;;;;4948326;28;97778;-45
2021/12/12 05:16:28;;;;;;;1.38;0.40;;;21.40;71.30;;;;;;4944939;28;95811;-40
2021/12/12 05:19:12;;;;;;;0.85;0.52;;;21.40;71.20;;;;;;4947651;28;95683;-43
2021/12/12 05:21:56;;;;;;;0.80;0.40;;;21.40;71.20;;;;;;4951639;28;95940;-43
2021/12/12 05:24:30;;;;;;;0.65;0.50;;;21.40;71.20;;;;;;4950339;28;95952;-42
2021/12/12 05:27:10;;;;;;;0.40;0.40;;;21.50;71.10;;;;;;4949125;28;95717;-45
2021/12/12 05:30:11;;;;;;;1.52;0.60;;;21.50;71.10;;;;;;4951145;28;95898;-44
2021/12/12 05:32:44;;;;;;;0.68;0.47;;;21.60;71.00;;;;;;4944491;28;95692;-42
2021/12/12 05:35:17;;;;;;;0.50;0.50;;;21.60;71.00;;;;;;4945028;28;96998;-45
2021/12/12 05:37:50;;;;;;;0.73;0.65;;;21.60;71.00;;;;;;4939833;28;95950;-44
2021/12/12 05:40:25;;;;;;;3.10;0.88;;;21.60;70.90;;;;;;4950000;28;96152;-44
2021/12/12 05:43:00;;;;;;;0.57;0.57;;;21.60;70.90;;;;;;4949064;28;95328;-44
2021/12/12 05:45:32;;;;;;;0.55;0.55;;;21.70;70.90;;;;;;4943110;28;95646;-40
2021/12/12 05:48:06;;;;;;;0.70;0.60;;;21.70;70.90;;;;;;4951330;28;95983;-46
2021/12/12 05:50:40;;;;;;;1.48;0.70;;;21.70;70.90;;;;;;4949801;28;95546;-45
2021/12/12 05:53:12;;;;;;;1.15;0.60;;;21.70;70.80;;;;;;4949007;28;95911;-42
2021/12/12 05:55:46;;;;;;;1.58;0.70;;;21.80;70.80;;;;;;4949887;28;95917;-45
2021/12/12 05:58:21;;;;;;;0.50;0.50;;;21.80;70.70;;;;;;4949435;28;96929;-43
2021/12/12 06:01:01;;;;;;;1.77;0.70;;;21.80;70.70;;;;;;4943942;28;95820;-45
2021/12/12 06:03:37;;;;;;;0.98;0.52;;;21.80;70.70;;;;;;4951157;28;95862;-42
2021/12/12 06:06:12;;;;;;;1.65;0.60;;;21.90;70.70;;;;;;4954354;28;95945;-43
2021/12/12 06:08:46;;;;;;;2.00;0.60;;;21.90;70.60;;;;;;4959836;28;96537;-47
2021/12/12 06:11:23;;;;;;;0.68;0.68;;;21.90;70.60;;;;;;4959513;28;96061;-41
2021/12/12 06:13:57;;;;;;;1.95;0.65;;;21.90;70.60;;;;;;4959958;28;95012;-45
2021/12/12 06:16:32;;;;;;;1.10;0.90;;;21.90;71.20;;;;;;4958173;28;95352;-43
2021/12/12 06:19:13;;;;;;;0.60;0.60;;;22.00;70.50;;;;;;4958643;28;96627;-46
2021/12/12 06:21:50;;;;;;;2.38;0.88;;;22.00;70.50;;;;;;4959822;28;95865;-47
2021/12/12 06:24:24;;;;;;;0.65;0.65;;;22.10;70.50;;;;;;4959812;28;94971;-46
2021/12/12 06:27:02;;;;;;;1.20;0.70;;;22.10;70.50;;;;;;4960028;28;95391;-43
2021/12/12 06:29:35;;;;;;;1.38;0.90;;;22.10;70.40;;;;;;4958409;28;96113;-44
2021/12/12 06:32:08;;;;;;;1.70;0.73;;;22.10;70.40;;;;;;4958164;28;95829;-46
2021/12/12 06:34:40;;;;;;;0.90;0.63;;;22.10;70.40;;;;;;4958817;28;95160;-43
2021/12/12 06:37:11;;;;;;;2.10;1.10;;;22.20;71.00;;;;;;4951822;28;95683;-44
2021/12/12 06:39:44;;;;;;;0.73;0.73;;;22.20;70.30;;;;;;4959301;28;97229;-46
2021/12/12 06:42:17;;;;;;;0.63;0.63;;;22.20;70.30;;;;;;4959263;28;95789;-42
2021/12/12 06:44:50;;;;;;;0.93;0.60;;;22.20;70.30;;;;;;4959809;28;94912;-45
2021/12/12 06:47:23;;;;;;;1.25;0.60;;;22.20;70.20;;;;;;4958945;28;95349;-40
2021/12/12 06:49:59;;;;;;;1.58;0.52;;;22.30;70.30;;;;;;4960355;28;96468;-43
2021/12/12 06:52:34;;;;;;;1.27;0.70;;;22.30;70.30;;;;;;4960136;28;95817;-41
2021/12/12 06:55:10;;;;;;;1.30;0.95;;;22.30;70.30;;;;;;4959858;28;95229;-46
2021/12/12 06:57:44;;;;;;;1.48;0.90;;;22.30;70.20;;;;;;4960704;28;95402;-44
2021/12/12 07:00:21;;;;;;;3.10;1.00;;;22.30;70.20;;;;;;4959227;28;96440;-43
2021/12/12 07:02:53;;;;;;;1.73;0.90;;;22.30;70.10;;;;;;4959001;28;95524;-42
2021/12/12 07:05:28;;;;;;;2.33;1.13;;;22.30;70.10;;;;;;4959862;28;94969;-44
2021/12/12 07:08:03;;;;;;;1.17;0.95;;;22.30;70.00;;;;;;4959154;28;95304;-45
2021/12/12 07:10:35;;;;;;;2.50;0.90;;;22.40;70.00;;;;;;4957697;28;96668;-46
2021/12/12 07:13:09;;;;;;;2.90;0.93;;;22.40;70.10;;;;;;4958772;28;95805;-43
2021/12/12 07:15:50;;;;;;;3.25;1.08;;;22.40;70.00;;;;;;4959295;28;95065;-46
2021/12/12 07:18:26;;;;;;;2.03;1.05;;;22.50;70.00;;;;;;4959250;28;95307;-44
2021/12/12 07:21:04;;;;;;;1.50;0.80;;;22.50;70.00;;;;;;4959099;28;96422;-43
2021/12/12 07:23:36;;;;;;;1.58;1.08;;;22.40;69.90;;;;;;4958667;28;95938;-44
2021/12/12 07:26:10;;;;;;;1.67;0.80;;;22.50;69.90;;;;;;4958939;28;94959;-46
2021/12/12 07:28:43;;;;;;;1.80;0.90;;;22.50;69.90;;;;;;4959039;28;95368;-46
2021/12/12 07:31:23;;;;;;;2.15;1.17;;;22.50;69.80;;;;;;4958394;28;96432;-46
2021/12/12 07:34:00;;;;;;;3.63;1.40;;;22.50;69.80;;;;;;4957026;28;95507;-45
2021/12/12 07:36:38;;;;;;;1.70;0.88;;;22.50;69.80;;;;;;4951535;28;95261;-46
2021/12/12 07:39:13;;;;;;;1.67;1.10;;;22.60;69.90;;;;;;4957607;28;95372;-46
2021/12/12 07:41:47;;;;;;;1.95;1.05;;;22.50;69.80;;;;;;4956906;28;96965;-40
2021/12/12 07:44:23;;;;;;;2.00;0.80;;;22.60;70.00;;;;;;4958289;28;95952;-44
2021/12/12 07:46:57;;;;;;;1.15;0.93;;;22.60;69.80;;;;;;4959015;28;94979;-43
2021/12/12 07:49:37;;;;;;;1.20;0.88;;;22.60;69.80;;;;;;4959902;28;95331;-46
2021/12/12 07:52:14;;;;;;;2.17;0.83;;;22.60;69.80;;;;;;4959505;28;96446;-42
2021/12/12 07:54:49;;;;;;;1.60;0.98;;;22.60;69.80;;;;;;4958884;28;95849;-42
2021/12/12 07:57:24;;;;;;;2.78;1.08;;;22.60;69.80;;;;;;4958014;28;95032;-41
2021/12/12 07:59:57;;;;;;;2.50;1.08;;;22.70;69.80;;;;;;4958588;28;95296;-43
2021/12/12 08:02:31;;;;;;;1.40;0.68;;;22.60;69.80;;;;;;4957803;28;96453;-45
2021/12/12 08:05:06;;;;;;;2.28;1.00;;;22.60;69.90;;;;;;4958702;28;95508;-40
2021/12/12 08:07:40;;;;;;;1.92;1.02;;;22.60;69.80;;;;;;4958848;28;94999;-45
2021/12/12 08:10:16;;;;;;;1.20;0.80;;;22.70;69.90;;;;;;4958887;28;95165;-46
2021/12/12 08:12:49;;;;;;;2.22;1.23;;;22.70;69.80;;;;;;4956812;28;96577;-44
2021/12/12 08:15:21;;;;;;;3.67;1.20;;;22.70;69.80;;;;;;4958254;28;95972;-43
2021/12/12 08:17:54;;;;;;;1.00;0.80;;;22.70;69.80;;;;;;4955895;28;95517;-44
2021/12/12 08:20:30;;;;;;;1.60;0.90;;;22.70;69.80;;;;;;4958062;28;95307;-43
2021/12/12 08:23:03;;;;;;;1.30;0.70;;;22.70;69.90;;;;;;4957686;28;96437;-44
2021/12/12 08:25:36;;;;;;;1.30;1.20;;;22.70;69.90;;;;;;4957929;28;95851;-44
2021/12/12 08:28:09;;;;;;;1.30;0.75;;;22.70;69.80;;;;;;4957943;28;95056;-43
2021/12/12 08:30:45;;;;;;;3.33;1.15;;;22.70;70.00;;;;;;4958479;28;95197;-44
2021/12/12 08:33:17;;;;;;;3.38;1.50;;;22.70;70.00;;;;;;4957721;28;96481;-43
2021/12/12 08:35:49;;;;;;;1.40;1.00;;;22.70;69.90;;;;;;4953650;28;95967;-45
2021/12/12 08:38:22;;;;;;;2.72;1.20;;;22.70;69.90;;;;;;4953612;28;95356;-45
2021/12/12 08:40:58;;;;;;;2.50;1.10;;;22.70;69.90;;;;;;4958023;28;95316;-43
2021/12/12 08:43:30;;;;;;;2.15;0.95;;;22.70;70.00;;;;;;4957563;28;96080;-44
2021/12/12 08:46:07;;;;;;;3.35;1.23;;;22.70;70.00;;;;;;4956746;28;95971;-43
2021/12/12 08:48:47;;;;;;;1.60;1.13;;;22.70;69.90;;;;;;4958887;28;94965;-43
2021/12/12 08:51:30;;;;;;;1.98;1.05;;;22.70;70.00;;;;;;4959007;28;95332;-42
2021/12/12 08:54:14;;;;;;;2.25;1.00;;;22.70;70.00;;;;;;4958162;28;96644;-45
2021/12/12 08:56:49;;;;;;;1.60;1.20;;;22.70;70.00;;;;;;4958382;28;95773;-45
2021/12/12 08:59:27;;;;;;;3.80;1.40;;;22.70;70.00;;;;;;4957541;28;94989;-43
2021/12/12 09:02:07;;;;;;;3.63;1.00;;;22.60;70.10;;;;;;4957675;28;95355;-42
2021/12/12 09:04:47;;;;;;;4.18;1.27;;;22.60;70.10;;;;;;4958502;28;96432;-46
2021/12/12 09:07:27;;;;;;;1.63;1.23;;;22.60;70.80;;;;;;4957824;28;96026;-46
2021/12/12 09:10:24;;;;;;;2.27;1.40;;;22.60;70.10;;;;;;4957802;28;95095;-43
2021/12/12 09:13:11;;;;;;;1.83;1.00;;;22.60;70.10;;;;;;4957562;28;95299;-45
2021/12/12 09:15:46;;;;;;;1.98;1.25;;;22.60;70.10;;;;;;4957063;28;96419;-44
2021/12/12 09:18:28;;;;;;;2.92;1.23;;;22.60;70.20;;;;;;4957033;28;95784;-46
2021/12/12 09:21:02;;;;;;;;;;;22.50;70.00;;;;;;4957735;28;94983;-45
2021/12/12 09:23:39;;;;;;;2.25;1.40;;;22.60;70.10;;;;;;4959048;28;95301;-43
2021/12/12 09:26:19;;;;;;;1.33;0.82;;;22.60;70.10;;;;;;4956979;28;96451;-45
2021/12/12 09:29:20;;;;;;;2.30;0.95;;;22.50;70.10;;;;;;4957020;28;95600;-40
2021/12/12 09:32:17;;;;;;;2.80;1.20;;;22.50;70.00;;;;;;4959979;28;95051;-42
2021/12/12 09:34:59;;;;;;;2.70;1.40;;;22.50;70.10;;;;;;4959676;28;95319;-42
2021/12/12 09:38:05;;;;;;;2.17;1.13;;;22.50;69.90;;;;;;4952307;28;96412;-43
2021/12/12 09:40:54;;;;;;;4.32;1.20;;;22.40;70.00;;;;;;4958139;28;96083;-42
2021/12/12 09:43:53;;;;;;;3.95;0.93;;;22.40;70.10;;;;;;4960626;28;95038;-43
2021/12/12 09:46:42;;;;;;;2.63;1.40;;;22.40;70.10;;;;;;4961743;28;95324;-44
2021/12/12 09:52:57;;;;;;;3.67;1.27;;;22.30;70.10;;;;;;4961102;28;95814;-44
2021/12/12 09:55:53;;;;;;;1.83;1.00;;;22.30;70.30;;;;;;4961298;28;94944;-46
2021/12/12 09:58:51;;;;;;;5.20;1.17;;;22.30;70.20;;;;;;4959595;28;95315;-43
2021/12/12 10:01:31;;;;;;;3.00;1.27;;;22.30;70.40;;;;;;4960537;28;95043;-45
2021/12/12 10:04:21;;;;;;;0.90;0.90;;;22.20;70.30;;;;;;4960422;28;95803;-44
2021/12/12 10:07:12;;;;;;;2.83;1.20;;;22.30;70.40;;;;;;4960845;28;94993;-45
2021/12/12 10:09:54;;;;;;;3.13;1.05;;;22.30;70.60;;;;;;4960743;28;95170;-41
2021/12/12 10:12:31;;;;;;;3.90;1.58;;;22.20;70.50;;;;;;4959672;28;96521;-40
2021/12/12 10:15:23;;;;;;;4.32;1.23;;;22.20;70.50;;;;;;4959634;28;95849;-43
2021/12/12 10:17:59;;;;;;;3.38;1.55;;;22.20;70.60;;;;;;4959281;28;95071;-44
2021/12/12 10:20:42;;;;;;;2.70;1.05;;;22.10;70.60;;;;;;4960462;28;95209;-44
2021/12/12 10:23:17;;;;;;;3.17;1.10;;;22.10;70.60;;;;;;4959533;28;96375;-41
2021/12/12 10:26:00;;;;;;;1.65;1.05;;;22.10;70.70;;;;;;4959499;28;95955;-46
2021/12/12 10:29:07;;;;;;;2.17;1.15;;;22.10;70.70;;;;;;4959949;28;94971;-44
2021/12/12 10:31:46;;;;;;;1.50;1.40;;;22.00;70.70;;;;;;4938393;28;95343;-43
2021/12/12 10:34:27;;;;;;;4.40;1.08;;;22.00;70.80;;;;;;4959296;28;95091;-44
2021/12/12 10:37:25;;;;;;;3.50;1.35;;;22.00;70.90;;;;;;4955032;28;97151;-43
2021/12/12 10:40:08;;;;;;;3.05;1.58;;;22.00;70.90;;;;;;4955355;28;95070;-45
2021/12/12 10:42:52;;;;;;;2.65;1.38;;;22.00;71.00;;;;;;4959099;28;95344;-44
2021/12/12 10:45:49;;;;;;;2.13;1.13;;;21.90;71.00;;;;;;4959561;28;96040;-42
2021/12/12 10:48:26;;;;;;;2.45;1.15;;;21.90;71.10;;;;;;4960742;28;95237;-41
2021/12/12 10:51:10;;;;;;;2.45;1.40;;;21.80;71.10;;;;;;4960602;28;94995;-45
2021/12/12 10:53:50;;;;;;;1.45;1.17;;;21.80;70.90;;;;;;4959412;28;95445;-43
2021/12/12 10:56:35;;;;;;;3.33;1.20;;;21.90;71.10;;;;;;4958823;28;96180;-46
2021/12/12 10:59:28;;;;;;;1.48;1.08;;;21.80;71.10;;;;;;4959096;28;95822;-47
2021/12/12 11:02:07;;;;;;;3.20;1.50;;;21.80;71.20;;;;;;4957699;28;95018;-43
2021/12/12 11:05:13;;;;;;;1.77;1.00;;;21.70;71.20;;;;;;4958930;28;95545;-44
2021/12/12 11:07:54;;;;;;;3.70;1.40;;;21.70;71.30;;;;;;4959709;28;96027;-43
2021/12/12 11:10:31;;;;;;;2.80;1.02;;;21.70;71.40;;;;;;4959108;28;96057;-41
2021/12/12 11:13:18;;;;;;;1.60;1.20;;;21.70;71.40;;;;;;4959088;28;95056;-43
2021/12/12 11:15:55;;;;;;;1.63;1.23;;;21.60;71.50;;;;;;4959447;28;95329;-41
2021/12/12 11:18:33;;;;;;;2.97;1.42;;;21.60;71.40;;;;;;4958584;28;96423;-46
2021/12/12 11:21:21;;;;;;;2.70;1.55;;;21.60;71.50;;;;;;4958661;28;95842;-41
2021/12/12 11:23:54;;;;;;;1.58;1.00;;;21.60;72.00;;;;;;4958999;28;94973;-45
2021/12/12 11:26:34;;;;;;;2.08;1.10;;;21.50;71.50;;;;;;4959037;28;95317;-42
2021/12/12 11:29:12;;;;;;;1.95;1.17;;;21.50;71.60;;;;;;4958421;28;96060;-43
2021/12/12 11:31:58;;;;;;;2.65;1.08;;;21.50;71.50;;;;;;4957023;28;95835;-43
2021/12/12 11:34:49;;;;;;;2.58;1.35;;;21.50;71.60;;;;;;4957851;28;95201;-46
2021/12/12 11:38:07;;;;;;;2.25;1.00;;;21.40;71.80;;;;;;4951556;28;95392;-42
2021/12/12 11:40:44;;;;;;;3.05;1.65;;;21.40;71.70;;;;;;4917250;28;96598;-46
2021/12/12 11:43:40;;;;;;;1.48;1.00;;;21.40;71.80;;;;;;4917691;28;95594;-44
2021/12/12 11:46:35;;;;;;;1.92;1.15;;;21.40;71.70;;;;;;4951525;28;95261;-41
2021/12/12 11:49:24;;;;;;;2.10;1.17;;;21.30;71.80;;;;;;4960160;28;95082;-41
2021/12/12 11:52:12;;;;;;;2.95;1.55;;;21.30;71.90;;;;;;4959589;28;96104;-42
2021/12/12 11:54:50;;;;;;;2.15;1.23;;;21.30;71.90;;;;;;4958811;28;95428;-44
2021/12/12 11:57:48;;;;;;;3.28;1.13;;;21.30;71.90;;;;;;4959122;28;94977;-41
2021/12/12 12:00:28;;;;;;;2.58;1.00;;;21.20;71.90;;;;;;4958635;28;95356;-42
2021/12/12 12:03:35;;;;;;;1.42;0.80;;;21.20;71.90;;;;;;4958003;28;102682;-43
2021/12/12 12:06:23;;;;;;;1.85;0.90;;;21.20;72.00;;;;;;4958847;28;95811;-45
2021/12/12 12:08:59;;;;;;;1.00;0.70;;;21.10;71.90;;;;;;4958605;28;95118;-44
2021/12/12 12:12:08;;;;;;;2.25;0.98;;;21.10;72.00;;;;;;4958477;28;95415;-47
2021/12/12 12:14:53;;;;;;;2.95;1.30;;;21.10;72.00;;;;;;4957024;28;96432;-43
2021/12/12 12:17:48;;;;;;;2.05;0.90;;;21.00;72.10;;;;;;4955486;28;95644;-43
2021/12/12 12:21:09;;;;;;;3.30;1.30;;;21.00;72.10;;;;;;4958595;28;94950;-43
2021/12/12 12:26:56;;;;;;;2.08;1.20;;;20.90;72.20;;;;;;4957760;28;96396;-41
2021/12/12 12:29:32;;;;;;;4.47;1.20;;;20.90;72.20;;;;;;4957779;28;95410;-45
2021/12/12 12:32:05;;;;;;;3.42;0.90;;;20.90;72.20;;;;;;4957254;28;95084;-41
2021/12/12 12:35:09;;;;;;;1.90;0.93;;;20.90;72.20;;;;;;4957206;28;95269;-45
2021/12/12 12:38:04;;;;;;;1.85;1.30;;;20.90;72.20;;;;;;4951955;28;96484;-43
2021/12/12 12:41:12;;;;;;;1.48;0.90;;;20.90;72.30;;;;;;4957495;28;95902;-44
2021/12/12 12:44:10;;;;;;;1.35;1.00;;;20.80;72.20;;;;;;4957828;28;94988;-43
2021/12/12 12:47:36;;;;;;;1.80;1.13;;;20.80;72.20;;;;;;4958025;28;95552;-43
2021/12/12 12:50:31;;;;;;;3.80;1.15;;;20.80;72.30;;;;;;4958774;28;95388;-46
2021/12/12 12:53:38;;;;;;;3.33;1.15;;;20.70;72.30;;;;;;4958305;28;95643;-44
2021/12/12 12:56:33;;;;;;;3.33;1.75;;;20.70;72.30;;;;;;4958666;28;95963;-45
2021/12/12 12:59:39;;;;;;;2.58;1.13;;;20.70;72.30;;;;;;4956399;28;95397;-44
2021/12/12 13:02:25;;;;;;;3.03;1.30;;;20.60;72.30;;;;;;4956392;28;96046;-41
2021/12/12 13:05:01;;;;;;;2.83;1.50;;;20.60;72.30;;;;;;4959715;28;95843;-46
2021/12/12 13:07:43;;;;;;;2.75;1.35;;;20.60;72.40;;;;;;4961502;28;95046;-42
2021/12/12 13:10:22;;;;;;;1.95;0.90;;;20.60;72.50;;;;;;4961551;28;95344;-42
2021/12/12 13:13:16;;;;;;;4.25;1.45;;;20.50;72.40;;;;;;4960491;28;96423;-46
2021/12/12 13:16:11;;;;;;;3.30;0.93;;;20.50;72.40;;;;;;4960590;28;95831;-43
2021/12/12 13:18:50;;;;;;;2.92;1.02;;;20.50;72.40;;;;;;4960653;28;95066;-39
2021/12/12 13:21:36;;;;;;;3.17;1.23;;;20.50;72.50;;;;;;4961003;28;95447;-44
2021/12/12 13:24:09;;;;;;;1.92;1.00;;;20.40;72.50;;;;;;4960736;28;96272;-42
2021/12/12 13:27:12;;;;;;;1.50;0.90;;;20.40;72.50;;;;;;4960154;28;96030;-43
2021/12/12 13:29:54;;;;;;;1.52;0.93;;;20.40;72.60;;;;;;4960919;28;94982;-42
2021/12/12 13:32:51;;;;;;;3.53;1.13;;;20.30;72.50;;;;;;4959738;28;95395;-40
2021/12/12 13:35:48;;;;;;;2.17;1.33;;;20.30;72.50;;;;;;4956535;28;96393;-42
2021/12/12 13:38:30;;;;;;;3.25;1.48;;;20.30;72.60;;;;;;4954819;28;95801;-39
2021/12/12 13:41:12;;;;;;;1.73;1.10;;;20.30;72.60;;;;;;4960362;28;95008;-41
2021/12/12 13:44:02;;;;;;;2.05;1.27;;;20.20;72.60;;;;;;4960703;28;95300;-43
2021/12/12 13:46:42;;;;;;;1.33;0.90;;;20.20;72.60;;;;;;4960544;28;96023;-42
2021/12/12 13:49:23;;;;;;;1.48;0.90;;;20.20;72.70;;;;;;4961192;28;96277;-43
2021/12/12 13:52:34;;;;;;;1.92;0.80;;;20.20;72.70;;;;;;4961254;28;94972;-41
2021/12/12 13:55:20;;;;;;;1.73;1.08;;;20.20;72.70;;;;;;4949810;28;95426;-42
2021/12/12 13:58:25;;;;;;;1.77;1.10;;;20.10;72.60;;;;;;4960504;28;96622;-42
2021/12/12 14:01:10;;;;;;;2.35;1.00;;;20.10;72.70;;;;;;4960197;28;95326;-44
2021/12/12 14:04:14;;;;;;;2.78;1.33;;;20.10;72.70;;;;;;4960641;28;94980;-43
2021/12/12 14:06:47;;;;;;;2.33;0.88;;;20.00;72.70;;;;;;4957552;28;95273;-44
2021/12/12 14:09:25;;;;;;;0.95;0.88;;;20.00;72.80;;;;;;4959724;28;96202;-43
2021/12/12 14:12:00;;;;;;;2.72;1.25;;;20.00;72.80;;;;;;4959991;28;95889;-40
2021/12/12 14:14:44;;;;;;;2.05;1.00;;;19.90;72.70;;;;;;4960103;28;94992;-43
2021/12/12 14:17:24;;;;;;;3.28;1.10;;;19.90;72.70;;;;;;4957666;28;95379;-43
2021/12/12 14:20:10;;;;;;;1.70;0.90;;;19.90;72.80;;;;;;4958462;28;96448;-42